Time;durP1;ratioP1;P1;durP2;ratioP2;P2;SDS_P1;SDS_P2;PMS_P1;PMS_P2;Temp;Humidity;BMP_temperature;BMP_pressure;BME280_temperature;BME280_humidity;BME280_pressure;Samples;Min_cycle;Max_cycle;Signal;HPM_P1;HPM_P2
2023/01/17 00:01:41;;;;;;;14.30;2.17;;;;;;;-144.87;100.00;61487.56;5025264;28;20132;-78
2023/01/17 00:09:54;;;;;;;8.40;1.38;;;;;;;-144.87;100.00;61487.56;5012724;28;20322;-79
2023/01/17 00:12:25;;;;;;;10.65;1.60;;;;;;;-144.87;100.00;61487.56;5027260;28;20041;-80
2023/01/17 00:14:53;;;;;;;7.28;1.27;;;;;;;-144.87;100.00;61487.56;5023886;28;20358;-79
2023/01/17 00:17:20;;;;;;;11.00;1.30;;;;;;;-144.87;100.00;61487.56;5008736;28;20115;-79
2023/01/17 01:35:23;;;;;;;6.35;0.98;;;;;;;-144.87;100.00;61487.56;5025877;28;20681;-77
2023/01/17 01:37:50;;;;;;;10.02;1.10;;;;;;;-144.87;100.00;61487.56;4990468;28;20171;-77
2023/01/17 01:40:17;;;;;;;6.00;1.67;;;;;;;-144.87;100.00;61487.56;4992987;28;20489;-77
2023/01/17 01:42:55;;;;;;;10.52;1.55;;;;;;;-144.87;100.00;61487.56;4989944;28;20448;-77
2023/01/17 01:45:24;;;;;;;5.55;1.45;;;;;;;-144.87;100.00;61487.56;5005230;28;20064;-78
2023/01/17 01:48:06;;;;;;;6.63;1.65;;;;;;;-144.87;100.00;61487.56;5009222;28;20091;-77
2023/01/17 01:50:34;;;;;;;12.18;1.40;;;;;;;-144.87;100.00;61487.56;5025385;28;20133;-77
2023/01/17 01:53:02;;;;;;;12.30;2.28;;;;;;;-144.87;100.00;61487.56;5007327;28;20227;-78
2023/01/17 01:55:34;;;;;;;13.52;2.05;;;;;;;-144.87;100.00;61487.56;4991435;28;20037;-78
2023/01/17 01:58:15;;;;;;;14.73;2.03;;;;;;;-144.87;100.00;61487.56;4975097;28;20548;-78
2023/01/17 02:00:41;;;;;;;8.25;2.17;;;;;;;-144.87;100.00;61487.56;4998015;28;20049;-77
2023/01/17 02:03:11;;;;;;;17.17;2.83;;;;;;;-144.87;100.00;61487.56;5008503;28;20034;-78
2023/01/17 02:05:41;;;;;;;9.20;1.65;;;;;;;-144.87;100.00;61487.56;5004422;28;20034;-78
2023/01/17 02:08:09;;;;;;;7.65;1.38;;;;;;;-144.87;100.00;61487.56;4992328;28;20069;-78
2023/01/17 02:10:38;;;;;;;12.52;2.30;;;;;;;-144.87;100.00;61487.56;4996156;28;20095;-76
2023/01/17 02:13:05;;;;;;;14.02;1.80;;;;;;;-144.87;100.00;61487.56;5007580;28;20124;-76
2023/01/17 02:15:55;;;;;;;8.23;1.95;;;;;;;-144.87;100.00;61487.56;5009678;28;20041;-76
2023/01/17 02:18:31;;;;;;;16.85;2.90;;;;;;;-144.87;100.00;61487.56;5028570;28;20034;-76
2023/01/17 02:21:27;;;;;;;16.08;2.75;;;;;;;-144.87;100.00;61487.56;5021637;28;20044;-76
2023/01/17 02:24:05;;;;;;;10.75;1.70;;;;;;;-144.87;100.00;61487.56;5037938;28;20049;-77
2023/01/17 02:26:43;;;;;;;23.30;2.28;;;;;;;-144.87;100.00;61487.56;5033541;28;20403;-77
2023/01/17 02:29:47;;;;;;;26.58;2.92;;;;;;;-144.87;100.00;61487.56;5025428;28;20037;-77
2023/01/17 02:32:32;;;;;;;18.33;2.58;;;;;;;-144.87;100.00;61487.56;5012517;28;20029;-77
2023/01/17 02:35:16;;;;;;;11.93;2.03;;;;;;;-144.87;100.00;61487.56;5027060;28;20400;-77
2023/01/17 02:37:45;;;;;;;8.77;1.95;;;;;;;-144.87;100.00;61487.56;5025085;28;20041;-75
2023/01/17 02:40:11;;;;;;;23.70;2.00;;;;;;;-144.87;100.00;61487.56;5011573;28;20068;-76
2023/01/17 02:42:41;;;;;;;16.65;1.90;;;;;;;-144.87;100.00;61487.56;5010574;28;20040;-77
2023/01/17 02:45:08;;;;;;;17.70;2.30;;;;;;;-144.87;100.00;61487.56;4995312;28;20065;-76
2023/01/17 02:47:34;;;;;;;14.43;1.70;;;;;;;-144.87;100.00;61487.56;5012440;28;20029;-77
2023/01/17 02:50:22;;;;;;;9.88;1.60;;;;;;;-144.87;100.00;61487.56;4994600;28;20040;-76
2023/01/17 02:52:49;;;;;;;14.90;1.80;;;;;;;-144.87;100.00;61487.56;5025657;28;20140;-77
2023/01/17 02:55:36;;;;;;;22.00;1.55;;;;;;;-144.87;100.00;61487.56;5010559;28;20048;-77
2023/01/17 02:58:15;;;;;;;7.00;1.77;;;;;;;-144.87;100.00;61487.56;5004527;28;20495;-77
2023/01/17 03:00:55;;;;;;;11.50;1.20;;;;;;;-144.87;100.00;61487.56;5010040;28;20041;-76
2023/01/17 03:03:42;;;;;;;7.65;1.50;;;;;;;-144.87;100.00;61487.56;5011808;28;20034;-79
2023/01/17 03:06:32;;;;;;;22.88;2.45;;;;;;;-144.87;100.00;61487.56;5027028;28;20401;-77
2023/01/17 03:08:58;;;;;;;12.30;2.20;;;;;;;-144.87;100.00;61487.56;5009498;28;20180;-77
2023/01/17 03:11:26;;;;;;;16.42;2.72;;;;;;;-144.87;100.00;61487.56;5026168;28;20125;-77
2023/01/17 03:13:56;;;;;;;10.98;1.42;;;;;;;-144.87;100.00;61487.56;5024514;28;20041;-77
2023/01/17 03:16:24;;;;;;;13.25;1.13;;;;;;;-144.87;100.00;61487.56;4994681;28;20164;-77
2023/01/17 03:18:52;;;;;;;13.90;1.40;;;;;;;-144.87;100.00;61487.56;4991438;28;20041;-76
2023/01/17 03:21:19;;;;;;;10.45;1.40;;;;;;;-144.87;100.00;61487.56;5001624;28;20456;-77
2023/01/17 03:23:45;;;;;;;11.77;1.33;;;;;;;-144.87;100.00;61487.56;5006950;28;20045;-76
2023/01/17 03:26:12;;;;;;;15.63;1.58;;;;;;;-144.87;100.00;61487.56;5020350;28;20041;-77
2023/01/17 03:28:38;;;;;;;10.55;1.30;;;;;;;-144.87;100.00;61487.56;5023999;28;20029;-77
2023/01/17 03:31:04;;;;;;;10.70;2.00;;;;;;;-144.87;100.00;61487.56;5023355;28;20060;-76
2023/01/17 03:33:31;;;;;;;12.50;1.95;;;;;;;-144.87;100.00;61487.56;5010411;28;20403;-77
2023/01/17 03:35:58;;;;;;;10.55;2.13;;;;;;;-144.87;100.00;61487.56;5002770;28;20048;-77
2023/01/17 03:38:25;;;;;;;13.32;1.33;;;;;;;-144.87;100.00;61487.56;5010296;28;20037;-79
2023/01/17 03:40:51;;;;;;;15.07;1.63;;;;;;;-144.87;100.00;61487.56;5008363;28;20046;-77
2023/01/17 03:43:17;;;;;;;9.95;1.23;;;;;;;-144.87;100.00;61487.56;5004782;28;20061;-77
2023/01/17 03:45:44;;;;;;;10.57;1.50;;;;;;;-144.87;100.00;61487.56;5027175;28;20037;-77
2023/01/17 03:48:10;;;;;;;12.20;1.77;;;;;;;-144.87;100.00;61487.56;4994010;28;20571;-77
2023/01/17 03:50:37;;;;;;;14.45;1.77;;;;;;;-144.87;100.00;61487.56;5032976;28;20120;-78
2023/01/17 03:53:03;;;;;;;10.15;1.58;;;;;;;-144.87;100.00;61487.56;5002655;28;20567;-77
2023/01/17 03:55:29;;;;;;;8.95;1.50;;;;;;;-144.87;100.00;61487.56;5013570;28;20052;-76
2023/01/17 03:57:55;;;;;;;17.83;2.72;;;;;;;-144.87;100.00;61487.56;4995081;28;20079;-77
2023/01/17 04:00:22;;;;;;;17.75;2.45;;;;;;;-144.87;100.00;61487.56;5010684;28;20080;-77
2023/01/17 04:02:48;;;;;;;9.98;2.50;;;;;;;-144.87;100.00;61487.56;4990942;28;20038;-77
2023/01/17 04:05:14;;;;;;;16.98;2.67;;;;;;;-144.87;100.00;61487.56;5009130;28;20116;-76
2023/01/17 04:07:41;;;;;;;14.88;2.10;;;;;;;-144.87;100.00;61487.56;5028219;28;20041;-77
2023/01/17 04:10:07;;;;;;;27.70;3.55;;;;;;;-144.87;100.00;61487.56;5007364;28;20601;-76
2023/01/17 04:12:34;;;;;;;18.45;2.20;;;;;;;-144.87;100.00;61487.56;5026412;28;20068;-77
2023/01/17 04:15:00;;;;;;;15.35;2.95;;;;;;;-144.87;100.00;61487.56;4992129;28;20041;-78
2023/01/17 04:17:26;;;;;;;14.23;2.28;;;;;;;-144.87;100.00;61487.56;5009779;28;20510;-77
2023/01/17 04:19:53;;;;;;;22.50;4.13;;;;;;;-144.87;100.00;61487.56;5008041;28;20068;-77
2023/01/17 04:22:19;;;;;;;10.18;2.08;;;;;;;-144.87;100.00;61487.56;4991210;28;20867;-77
2023/01/17 04:24:45;;;;;;;13.55;2.13;;;;;;;-144.87;100.00;61487.56;5026436;28;20041;-77
2023/01/17 04:27:13;;;;;;;9.88;2.25;;;;;;;-144.87;100.00;61487.56;5009843;28;20124;-77
2023/01/17 04:29:39;;;;;;;19.40;2.55;;;;;;;-144.87;100.00;61487.56;5003837;28;20035;-78
2023/01/17 04:32:05;;;;;;;13.07;2.00;;;;;;;-144.87;100.00;61487.56;5026702;28;20087;-77
2023/01/17 04:34:32;;;;;;;16.85;3.13;;;;;;;-144.87;100.00;61487.56;5009564;28;20033;-78
2023/01/17 04:36:58;;;;;;;14.05;2.80;;;;;;;-144.87;100.00;61487.56;5022780;28;20037;-78
2023/01/17 04:39:24;;;;;;;19.13;2.08;;;;;;;-144.87;100.00;61487.56;5024649;28;20034;-79
2023/01/17 04:41:50;;;;;;;13.85;2.95;;;;;;;-144.87;100.00;61487.56;5009879;28;20053;-78
2023/01/17 04:44:17;;;;;;;14.95;3.08;;;;;;;-144.87;100.00;61487.56;5023328;28;20088;-78
2023/01/17 04:46:43;;;;;;;11.90;2.92;;;;;;;-144.87;100.00;61487.56;5025295;28;20083;-77
2023/01/17 04:49:09;;;;;;;13.98;2.35;;;;;;;-144.87;100.00;61487.56;5024890;28;20038;-77
2023/01/17 04:51:36;;;;;;;18.05;2.20;;;;;;;-144.87;100.00;61487.56;5024183;28;20459;-77
2023/01/17 04:54:02;;;;;;;21.40;2.58;;;;;;;-144.87;100.00;61487.56;5027332;28;20041;-78
2023/01/17 04:56:28;;;;;;;13.23;2.50;;;;;;;-144.87;100.00;61487.56;5009672;28;20120;-77
2023/01/17 04:58:57;;;;;;;11.45;2.22;;;;;;;-144.87;100.00;61487.56;5006860;28;20128;-77
2023/01/17 05:01:23;;;;;;;17.17;2.72;;;;;;;-144.87;100.00;61487.56;5019572;28;20073;-80
2023/01/17 05:03:49;;;;;;;8.18;2.33;;;;;;;-144.87;100.00;61487.56;5018460;28;20034;-77
2023/01/17 05:06:15;;;;;;;4.38;1.75;;;;;;;-144.87;100.00;61487.56;5023252;28;20057;-77
2023/01/17 05:08:41;;;;;;;11.18;2.33;;;;;;;-144.87;100.00;61487.56;4992016;28;20042;-77
2023/01/17 05:11:08;;;;;;;19.98;2.72;;;;;;;-144.87;100.00;61487.56;5021452;28;20381;-76
2023/01/17 05:13:34;;;;;;;11.88;2.03;;;;;;;-144.87;100.00;61487.56;5009701;28;20030;-76
2023/01/17 05:16:00;;;;;;;12.65;2.00;;;;;;;-144.87;100.00;61487.56;5008419;28;20420;-77
2023/01/17 05:18:27;;;;;;;18.67;2.40;;;;;;;-144.87;100.00;61487.56;5009075;28;20041;-77
2023/01/17 05:20:53;;;;;;;16.42;2.10;;;;;;;-144.87;100.00;61487.56;5005761;28;20041;-77
2023/01/17 05:23:19;;;;;;;14.70;2.03;;;;;;;-144.87;100.00;61487.56;5005423;28;20038;-77
2023/01/17 05:25:46;;;;;;;18.90;2.60;;;;;;;-144.87;100.00;61487.56;5020836;28;20385;-77
2023/01/17 05:28:12;;;;;;;12.52;1.73;;;;;;;-144.87;100.00;61487.56;5006323;28;20095;-78
2023/01/17 05:30:39;;;;;;;14.55;2.55;;;;;;;-144.87;100.00;61487.56;5021405;28;20072;-78
2023/01/17 05:33:06;;;;;;;9.07;2.17;;;;;;;-144.87;100.00;61487.56;4991453;28;20057;-77
2023/01/17 05:35:33;;;;;;;21.33;3.40;;;;;;;-144.87;100.00;61487.56;5024664;28;20567;-77
2023/01/17 05:37:59;;;;;;;16.58;3.08;;;;;;;-144.87;100.00;61487.56;5006671;28;20599;-78
2023/01/17 05:40:27;;;;;;;14.88;2.30;;;;;;;-144.87;100.00;61487.56;5010656;28;20492;-77
2023/01/17 05:42:55;;;;;;;16.40;2.50;;;;;;;-144.87;100.00;61487.56;5007488;28;20050;-78
2023/01/17 05:45:23;;;;;;;12.52;1.90;;;;;;;-144.87;100.00;61487.56;4993952;28;20041;-77
2023/01/17 05:47:51;;;;;;;18.65;3.30;;;;;;;-144.87;100.00;61487.56;5014042;28;20044;-78
2023/01/17 05:50:24;;;;;;;12.52;2.00;;;;;;;-144.87;100.00;61487.56;5013583;28;20029;-78
2023/01/17 05:52:52;;;;;;;15.43;1.92;;;;;;;-144.87;100.00;61487.56;5008012;28;20530;-78
2023/01/17 05:55:19;;;;;;;11.27;2.10;;;;;;;-144.87;100.00;61487.56;5005015;28;20079;-77
2023/01/17 05:57:45;;;;;;;17.15;1.80;;;;;;;-144.87;100.00;61487.56;5010202;28;20038;-77
2023/01/17 06:00:13;;;;;;;12.73;2.25;;;;;;;-144.87;100.00;61487.56;5017389;28;20417;-78
2023/01/17 06:02:39;;;;;;;7.40;2.17;;;;;;;-144.87;100.00;61487.56;5024864;28;20444;-78
2023/01/17 06:05:06;;;;;;;15.77;2.72;;;;;;;-144.87;100.00;61487.56;5027492;28;20123;-78
2023/01/17 06:07:33;;;;;;;11.70;2.65;;;;;;;-144.87;100.00;61487.56;5026424;28;20041;-78
2023/01/17 06:09:59;;;;;;;38.30;4.72;;;;;;;-144.87;100.00;61487.56;5022832;28;20038;-78
2023/01/17 06:12:25;;;;;;;12.15;2.63;;;;;;;-144.87;100.00;61487.56;5005308;28;20037;-80
2023/01/17 06:14:51;;;;;;;16.65;2.03;;;;;;;-144.87;100.00;61487.56;5026637;28;20341;-77
2023/01/17 06:17:18;;;;;;;13.35;2.38;;;;;;;-144.87;100.00;61487.56;5028313;28;20049;-78
2023/01/17 06:19:44;;;;;;;10.73;2.15;;;;;;;-144.87;100.00;61487.56;4998132;28;20053;-77
2023/01/17 06:22:10;;;;;;;13.55;2.10;;;;;;;-144.87;100.00;61487.56;5033928;28;20056;-77
2023/01/17 06:24:36;;;;;;;16.42;3.25;;;;;;;-144.87;100.00;61487.56;5041748;28;20033;-77
2023/01/17 06:27:03;;;;;;;17.77;2.78;;;;;;;-144.87;100.00;61487.56;5042322;28;20042;-77
2023/01/17 06:29:29;;;;;;;18.65;3.83;;;;;;;-144.87;100.00;61487.56;5003857;28;20095;-78
2023/01/17 06:31:55;;;;;;;12.77;2.67;;;;;;;-144.87;100.00;61487.56;5033761;28;20049;-77
2023/01/17 06:34:21;;;;;;;15.40;3.15;;;;;;;-144.87;100.00;61487.56;4994559;28;20040;-77
2023/01/17 06:36:48;;;;;;;20.73;3.65;;;;;;;-144.87;100.00;61487.56;4992619;28;20095;-78
2023/01/17 06:39:14;;;;;;;17.85;3.22;;;;;;;-144.87;100.00;61487.56;4991047;28;20042;-77
2023/01/17 06:41:41;;;;;;;15.77;3.72;;;;;;;-144.87;100.00;61487.56;5008457;28;20103;-77
2023/01/17 06:44:08;;;;;;;22.30;3.22;;;;;;;-144.87;100.00;61487.56;5006027;28;20049;-77
2023/01/17 06:46:35;;;;;;;16.48;3.88;;;;;;;-144.87;100.00;61487.56;5020205;28;20041;-77
2023/01/17 06:49:01;;;;;;;14.05;2.90;;;;;;;-144.87;100.00;61487.56;4999931;28;20089;-77
2023/01/17 06:51:28;;;;;;;16.45;3.47;;;;;;;-144.87;100.00;61487.56;5004970;28;20033;-78
2023/01/17 06:53:54;;;;;;;20.45;5.28;;;;;;;-144.87;100.00;61487.56;5025877;28;20040;-77
2023/01/17 06:56:21;;;;;;;22.00;3.70;;;;;;;-144.87;100.00;61487.56;5008096;28;20080;-77
2023/01/17 06:58:50;;;;;;;11.85;3.10;;;;;;;-144.87;100.00;61487.56;4993630;28;20058;-77
2023/01/17 07:01:17;;;;;;;18.02;3.38;;;;;;;-144.87;100.00;61487.56;4990431;28;20528;-77
2023/01/17 07:03:43;;;;;;;15.20;3.08;;;;;;;-144.87;100.00;61487.56;5001955;28;20488;-78
2023/01/17 07:06:10;;;;;;;16.98;3.40;;;;;;;-144.87;100.00;61487.56;5008449;28;20034;-77
2023/01/17 07:08:36;;;;;;;15.57;3.35;;;;;;;-144.87;100.00;61487.56;5005853;28;20501;-76
2023/01/17 07:11:06;;;;;;;17.58;3.50;;;;;;;-144.87;100.00;61487.56;5003859;28;20088;-76
2023/01/17 07:13:39;;;;;;;11.35;3.53;;;;;;;-144.87;100.00;61487.56;5005129;28;20092;-77
2023/01/17 07:16:06;;;;;;;20.75;3.67;;;;;;;-144.87;100.00;61487.56;4990003;28;20606;-78
2023/01/17 07:18:33;;;;;;;20.08;4.38;;;;;;;-144.87;100.00;61487.56;5007564;28;20061;-77
2023/01/17 07:20:59;;;;;;;18.42;4.05;;;;;;;-144.87;100.00;61487.56;5009169;28;20447;-77
2023/01/17 07:23:26;;;;;;;18.65;3.65;;;;;;;-144.87;100.00;61487.56;5010342;28;20068;-78
2023/01/17 07:25:57;;;;;;;15.23;3.28;;;;;;;-144.87;100.00;61487.56;5010369;28;20137;-78
2023/01/17 07:28:24;;;;;;;14.52;4.93;;;;;;;-144.87;100.00;61487.56;5000529;28;20397;-79
2023/01/17 07:30:51;;;;;;;17.83;3.35;;;;;;;-144.87;100.00;61487.56;5009697;28;20052;-78
2023/01/17 07:33:17;;;;;;;27.15;3.47;;;;;;;-144.87;100.00;61487.56;5010486;28;20041;-79
2023/01/17 07:35:44;;;;;;;27.80;4.35;;;;;;;-144.87;100.00;61487.56;5003433;28;20423;-79
2023/01/17 07:38:16;;;;;;;16.88;3.67;;;;;;;-144.87;100.00;61487.56;5008544;28;20042;-78
2023/01/17 07:40:42;;;;;;;15.43;3.08;;;;;;;-144.87;100.00;61487.56;4990247;28;20376;-79
2023/01/17 07:43:15;;;;;;;14.52;3.33;;;;;;;-144.87;100.00;61487.56;4999444;28;20034;-78
2023/01/17 07:45:49;;;;;;;21.00;3.55;;;;;;;-144.87;100.00;61487.56;5009270;28;20030;-78
2023/01/17 07:48:16;;;;;;;15.48;2.80;;;;;;;-144.87;100.00;61487.56;5008566;28;20053;-78
2023/01/17 07:50:44;;;;;;;6.75;2.38;;;;;;;-144.87;100.00;61487.56;5004342;28;20482;-76
2023/01/17 07:53:11;;;;;;;15.20;3.53;;;;;;;-144.87;100.00;61487.56;5008875;28;20037;-79
2023/01/17 07:55:37;;;;;;;12.65;2.80;;;;;;;-144.87;100.00;61487.56;5009569;28;20417;-79
2023/01/17 07:58:03;;;;;;;15.38;3.20;;;;;;;-144.87;100.00;61487.56;4994090;28;20038;-79
2023/01/17 08:00:29;;;;;;;22.02;3.28;;;;;;;-144.87;100.00;61487.56;5014168;28;20067;-79
2023/01/17 08:02:56;;;;;;;12.20;3.20;;;;;;;-144.87;100.00;61487.56;5001379;28;20072;-78
2023/01/17 08:05:23;;;;;;;11.40;2.10;;;;;;;-144.87;100.00;61487.56;5009774;28;20042;-80
2023/01/17 08:07:50;;;;;;;19.80;2.97;;;;;;;-144.87;100.00;61487.56;5024055;28;20034;-78
2023/01/17 08:10:16;;;;;;;12.75;2.10;;;;;;;-144.87;100.00;61487.56;4990485;28;20038;-78
2023/01/17 08:12:47;;;;;;;18.25;3.35;;;;;;;-144.87;100.00;61487.56;4994022;28;20053;-79
2023/01/17 08:15:17;;;;;;;12.65;3.45;;;;;;;-144.87;100.00;61487.56;5002372;28;20056;-78
2023/01/17 08:17:47;;;;;;;7.72;2.08;;;;;;;-144.87;100.00;61487.56;5012512;28;20046;-79
2023/01/17 08:20:15;;;;;;;16.48;3.08;;;;;;;-144.87;100.00;61487.56;5029522;28;20037;-79
2023/01/17 08:22:41;;;;;;;19.00;2.80;;;;;;;-144.87;100.00;61487.56;5012166;28;20033;-78
2023/01/17 08:25:08;;;;;;;18.25;3.72;;;;;;;-144.87;100.00;61487.56;5009859;28;20037;-79
2023/01/17 08:27:34;;;;;;;8.98;2.63;;;;;;;-144.87;100.00;61487.56;5010641;28;20072;-79
2023/01/17 08:30:01;;;;;;;15.85;3.20;;;;;;;-144.87;100.00;61487.56;5024008;28;20523;-78
2023/01/17 08:32:27;;;;;;;12.85;3.70;;;;;;;-144.87;100.00;61487.56;5004155;28;20045;-79
2023/01/17 08:34:55;;;;;;;12.52;3.17;;;;;;;-144.87;100.00;61487.56;5023914;28;20068;-77
2023/01/17 08:37:21;;;;;;;6.35;2.45;;;;;;;-144.87;100.00;61487.56;4995689;28;20052;-77
2023/01/17 08:39:48;;;;;;;16.20;3.25;;;;;;;-144.87;100.00;61487.56;4992423;28;20129;-78
2023/01/17 08:42:14;;;;;;;17.60;3.88;;;;;;;-144.87;100.00;61487.56;5019780;28;20045;-77
2023/01/17 08:44:42;;;;;;;12.50;3.13;;;;;;;-144.87;100.00;61487.56;5003983;28;20036;-77
2023/01/17 08:47:08;;;;;;;12.70;3.00;;;;;;;-144.87;100.00;61487.56;5005211;28;20046;-77
2023/01/17 08:49:35;;;;;;;17.52;3.38;;;;;;;-144.87;100.00;61487.56;4992722;28;20043;-77
2023/01/17 08:52:01;;;;;;;12.38;3.78;;;;;;;-144.87;100.00;61487.56;5007268;28;20053;-78
2023/01/17 08:54:27;;;;;;;16.13;2.80;;;;;;;-144.87;100.00;61487.56;5021016;28;20040;-77
2023/01/17 08:56:54;;;;;;;6.85;3.47;;;;;;;-144.87;100.00;61487.56;5035397;28;20060;-76
2023/01/17 08:59:21;;;;;;;8.45;3.10;;;;;;;-144.87;100.00;61487.56;5020720;28;20045;-76
2023/01/17 09:01:48;;;;;;;12.57;2.78;;;;;;;-144.87;100.00;61487.56;5024741;28;20072;-77
2023/01/17 09:04:14;;;;;;;9.77;3.00;;;;;;;-144.87;100.00;61487.56;5022837;28;20048;-77
2023/01/17 09:06:44;;;;;;;12.63;2.90;;;;;;;-144.87;100.00;61487.56;5021178;28;20095;-78
2023/01/17 09:09:10;;;;;;;10.68;2.95;;;;;;;-144.87;100.00;61487.56;5023261;28;20067;-78
2023/01/17 09:11:37;;;;;;;8.75;2.85;;;;;;;-144.87;100.00;61487.56;5024135;28;20036;-77
2023/01/17 09:14:03;;;;;;;16.25;3.83;;;;;;;-144.87;100.00;61487.56;5007908;28;20044;-77
2023/01/17 09:16:31;;;;;;;11.50;3.33;;;;;;;-144.87;100.00;61487.56;4995670;28;20516;-78
2023/01/17 09:18:58;;;;;;;17.45;3.95;;;;;;;-144.87;100.00;61487.56;5014335;28;20120;-78
2023/01/17 09:21:25;;;;;;;11.10;3.00;;;;;;;-144.87;100.00;61487.56;5032881;28;20484;-84
2023/01/17 09:23:52;;;;;;;17.85;2.63;;;;;;;-144.87;100.00;61487.56;5014746;28;20087;-76
2023/01/17 09:26:24;;;;;;;11.57;2.55;;;;;;;-144.87;100.00;61487.56;5015546;28;20045;-77
2023/01/17 09:28:51;;;;;;;9.82;3.13;;;;;;;-144.87;100.00;61487.56;5014715;28;20547;-77
2023/01/17 09:31:20;;;;;;;11.98;2.55;;;;;;;-144.87;100.00;61487.56;5015315;28;20044;-77
2023/01/17 09:33:47;;;;;;;17.63;3.28;;;;;;;-144.87;100.00;61487.56;5014904;28;20037;-77
2023/01/17 09:36:13;;;;;;;7.07;3.00;;;;;;;-144.87;100.00;61487.56;5032245;28;20428;-77
2023/01/17 09:38:40;;;;;;;12.50;3.55;;;;;;;-144.87;100.00;61487.56;4996497;28;20099;-77
2023/01/17 09:41:27;;;;;;;10.88;3.67;;;;;;;-144.87;100.00;61487.56;5000284;28;20367;-77
2023/01/17 09:44:05;;;;;;;14.07;4.15;;;;;;;-144.87;100.00;61487.56;5022353;28;20056;-77
2023/01/17 09:46:44;;;;;;;8.43;2.95;;;;;;;-144.87;100.00;61487.56;5015195;28;20069;-77
2023/01/17 09:49:21;;;;;;;9.88;3.20;;;;;;;-144.87;100.00;61487.56;4998881;28;20038;-77
2023/01/17 09:51:47;;;;;;;8.05;3.08;;;;;;;-144.87;100.00;61487.56;5021922;28;20100;-76
2023/01/17 09:54:21;;;;;;;7.53;3.08;;;;;;;-144.87;100.00;61487.56;5022763;28;20034;-77
2023/01/17 09:57:10;;;;;;;6.60;2.58;;;;;;;-144.87;100.00;61487.56;4995561;28;20135;-76
2023/01/17 10:00:08;;;;;;;6.55;2.63;;;;;;;-144.87;100.00;61487.56;5024050;28;20037;-77
2023/01/17 10:02:48;;;;;;;11.32;2.88;;;;;;;-144.87;100.00;61487.56;5031918;28;20060;-77
2023/01/17 10:05:55;;;;;;;6.78;2.28;;;;;;;-144.87;100.00;61487.56;5009303;28;20112;-77
2023/01/17 10:08:45;;;;;;;9.82;2.47;;;;;;;-144.87;100.00;61487.56;4989696;28;20413;-76
2023/01/17 10:11:39;;;;;;;6.30;2.22;;;;;;;-144.87;100.00;61487.56;5013200;28;20416;-76
2023/01/17 10:14:33;;;;;;;7.60;3.00;;;;;;;-144.87;100.00;61487.56;5031799;28;20029;-77
2023/01/17 10:17:37;;;;;;;6.43;2.90;;;;;;;-144.87;100.00;61487.56;5029819;28;20048;-78
2023/01/17 10:20:11;;;;;;;6.45;2.45;;;;;;;-144.87;100.00;61487.56;5006939;28;20399;-77
2023/01/17 10:22:42;;;;;;;6.22;2.15;;;;;;;-144.87;100.00;61487.56;4998035;28;20041;-77
2023/01/17 10:25:12;;;;;;;12.35;2.67;;;;;;;-144.87;100.00;61487.56;5013650;28;20033;-77
2023/01/17 10:28:00;;;;;;;6.65;2.40;;;;;;;-144.87;100.00;61487.56;5029522;28;20040;-77
2023/01/17 10:30:33;;;;;;;8.57;2.30;;;;;;;-144.87;100.00;61487.56;5028627;28;20491;-80
2023/01/17 10:33:13;;;;;;;6.95;2.40;;;;;;;-144.87;100.00;61487.56;5027195;28;20033;-76
2023/01/17 10:35:51;;;;;;;6.10;2.53;;;;;;;-144.87;100.00;61487.56;5029986;28;20045;-77
2023/01/17 10:38:18;;;;;;;7.15;2.90;;;;;;;-144.87;100.00;61487.56;5032063;28;20408;-78
2023/01/17 10:41:17;;;;;;;7.65;2.55;;;;;;;-144.87;100.00;61487.56;5014058;28;20038;-77
2023/01/17 10:44:20;;;;;;;6.38;2.47;;;;;;;-144.87;100.00;61487.56;5032196;28;20033;-77
2023/01/17 10:47:00;;;;;;;7.30;3.00;;;;;;;-144.87;100.00;61487.56;5002035;28;20056;-77
2023/01/17 10:49:27;;;;;;;9.18;3.63;;;;;;;-144.87;100.00;61487.56;5012964;28;20048;-79
2023/01/17 10:52:08;;;;;;;9.95;3.78;;;;;;;-144.87;100.00;61487.56;5013880;28;20033;-76
2023/01/17 10:54:48;;;;;;;;;;;;;;;-144.87;100.00;61487.56;5025493;28;20029;-76
2023/01/17 10:57:21;;;;;;;11.05;3.65;;;;;;;-144.87;100.00;61487.56;5011496;28;20323;-76
2023/01/17 10:59:49;;;;;;;6.10;2.92;;;;;;;-144.87;100.00;61487.56;5013937;28;20401;-77
2023/01/17 11:02:28;;;;;;;10.02;3.20;;;;;;;-144.87;100.00;61487.56;5018019;28;20447;-76
2023/01/17 11:04:57;;;;;;;7.20;3.00;;;;;;;-144.87;100.00;61487.56;5012749;28;20075;-76
2023/01/17 11:07:27;;;;;;;9.93;3.35;;;;;;;-144.87;100.00;61487.56;5007336;28;20053;-76
2023/01/17 11:09:55;;;;;;;9.43;3.58;;;;;;;-144.87;100.00;61487.56;5024906;28;20091;-76
2023/01/17 11:12:37;;;;;;;10.45;3.45;;;;;;;-144.87;100.00;61487.56;4994113;28;20069;-79
2023/01/17 11:15:09;;;;;;;14.45;4.07;;;;;;;-144.87;100.00;61487.56;5010105;28;20030;-78
2023/01/17 11:18:00;;;;;;;7.45;3.20;;;;;;;-144.87;100.00;61487.56;5030371;28;20034;-77
2023/01/17 11:20:34;;;;;;;7.80;3.77;;;;;;;-144.87;100.00;61487.56;5007055;28;20052;-76
2023/01/17 11:23:20;;;;;;;12.15;4.32;;;;;;;-144.87;100.00;61487.56;4979434;28;20295;-78
2023/01/17 11:25:57;;;;;;;15.18;3.90;;;;;;;-144.87;100.00;61487.56;5008601;28;20518;-78
2023/01/17 11:28:31;;;;;;;11.35;3.90;;;;;;;-144.87;100.00;61487.56;5010925;28;20112;-78
2023/01/17 11:30:59;;;;;;;9.98;4.15;;;;;;;-144.87;100.00;61487.56;5003741;28;20029;-77
2023/01/17 11:33:31;;;;;;;9.07;4.40;;;;;;;-144.87;100.00;61487.56;5012277;28;20073;-76
2023/01/17 11:35:58;;;;;;;11.13;4.05;;;;;;;-144.87;100.00;61487.56;5030960;28;20041;-76
2023/01/17 11:38:24;;;;;;;8.20;4.18;;;;;;;-144.87;100.00;61487.56;5015797;28;20094;-78
2023/01/17 11:41:18;;;;;;;11.82;4.55;;;;;;;-144.87;100.00;61487.56;5001975;28;20573;-77
2023/01/17 11:43:51;;;;;;;9.10;4.03;;;;;;;-144.87;100.00;61487.56;5008572;28;20069;-76
2023/01/17 11:46:19;;;;;;;8.85;4.18;;;;;;;-144.87;100.00;61487.56;5012848;28;20036;-76
2023/01/17 11:48:53;;;;;;;11.32;4.20;;;;;;;-144.87;100.00;61487.56;5010688;28;20101;-77
2023/01/17 11:51:29;;;;;;;10.27;3.92;;;;;;;-144.87;100.00;61487.56;4998526;28;20075;-77
2023/01/17 11:54:14;;;;;;;7.93;4.10;;;;;;;-144.87;100.00;61487.56;5023237;28;20038;-77
2023/01/17 11:56:44;;;;;;;13.13;5.93;;;;;;;-144.87;100.00;61487.56;5021712;28;20045;-77
2023/01/17 11:59:32;;;;;;;10.63;5.28;;;;;;;-144.87;100.00;61487.56;5005830;28;20086;-76
2023/01/17 12:02:37;;;;;;;9.05;4.00;;;;;;;-144.87;100.00;61487.56;5010109;28;20041;-77
2023/01/17 12:05:37;;;;;;;9.65;4.00;;;;;;;-144.87;100.00;61487.56;5008266;28;20065;-77
2023/01/17 12:08:29;;;;;;;8.70;3.92;;;;;;;-144.87;100.00;61487.56;5007492;28;20112;-77
2023/01/17 12:10:55;;;;;;;11.18;4.25;;;;;;;-144.87;100.00;61487.56;5020295;28;20341;-76
2023/01/17 12:16:54;;;;;;;10.13;3.67;;;;;;;-144.87;100.00;61487.56;5010351;28;20091;-77
2023/01/17 12:19:47;;;;;;;7.68;3.33;;;;;;;-144.87;100.00;61487.56;5014945;28;20056;-76
2023/01/17 12:22:32;;;;;;;11.20;3.40;;;;;;;-144.87;100.00;61487.56;5025288;28;20044;-77
2023/01/17 12:25:22;;;;;;;7.20;3.67;;;;;;;-144.87;100.00;61487.56;5017822;28;20408;-77
2023/01/17 12:28:19;;;;;;;9.88;3.22;;;;;;;-144.87;100.00;61487.56;5007266;28;20033;-77
2023/01/17 12:30:57;;;;;;;7.25;3.42;;;;;;;-144.87;100.00;61487.56;5023417;28;20049;-77
2023/01/17 12:33:46;;;;;;;7.88;2.75;;;;;;;-144.87;100.00;61487.56;5007388;28;20071;-81
2023/01/17 12:36:29;;;;;;;6.45;2.72;;;;;;;-144.87;100.00;61487.56;5009420;28;20049;-77
2023/01/17 12:38:57;;;;;;;9.50;3.55;;;;;;;-144.87;100.00;61487.56;5017730;28;20029;-78
2023/01/17 12:41:49;;;;;;;7.88;3.10;;;;;;;-144.87;100.00;61487.56;4992425;28;20047;-78
2023/01/17 12:44:17;;;;;;;5.57;2.30;;;;;;;-144.87;100.00;61487.56;5021270;28;20041;-77
2023/01/17 12:46:53;;;;;;;8.52;2.53;;;;;;;-144.87;100.00;61487.56;5007200;28;20040;-77
2023/01/17 12:49:40;;;;;;;5.65;2.53;;;;;;;-144.87;100.00;61487.56;4990792;28;20040;-77